sensor_id;sensor_type;location;lat;lon;timestamp;temperature;humidity
52044;DHT22;38053;53.100;6.078;2022-09-09T00:01:46;13.80;99.90
52044;DHT22;38053;53.100;6.078;2022-09-09T00:04:28;13.80;99.90
52044;DHT22;38053;53.100;6.078;2022-09-09T00:09:29;13.80;99.90
52044;DHT22;38053;53.100;6.078;2022-09-09T00:12:11;13.70;99.90
52044;DHT22;38053;53.100;6.078;2022-09-09T00:15:11;13.70;99.90
52044;DHT22;38053;53.100;6.078;2022-09-09T00:17:48;13.70;99.90
52044;DHT22;38053;53.100;6.078;2022-09-09T00:23:12;13.70;99.90
52044;DHT22;38053;53.100;6.078;2022-09-09T00:28:19;13.60;99.90
52044;DHT22;38053;53.100;6.078;2022-09-09T00:30:51;13.60;99.90
52044;DHT22;38053;53.100;6.078;2022-09-09T00:33:23;13.60;99.90
52044;DHT22;38053;53.100;6.078;2022-09-09T00:35:58;13.60;99.90
52044;DHT22;38053;53.100;6.078;2022-09-09T00:42:11;13.60;99.90
52044;DHT22;38053;53.100;6.078;2022-09-09T00:56:13;13.50;99.90
52044;DHT22;38053;53.100;6.078;2022-09-09T00:59:10;13.50;99.90
52044;DHT22;38053;53.100;6.078;2022-09-09T01:01:37;13.50;99.90
52044;DHT22;38053;53.100;6.078;2022-09-09T01:04:28;13.40;99.90
52044;DHT22;38053;53.100;6.078;2022-09-09T01:07:16;13.40;99.90
52044;DHT22;38053;53.100;6.078;2022-09-09T01:10:05;13.40;99.90
52044;DHT22;38053;53.100;6.078;2022-09-09T01:15:21;13.40;99.90
52044;DHT22;38053;53.100;6.078;2022-09-09T01:18:16;13.40;99.90
52044;DHT22;38053;53.100;6.078;2022-09-09T01:21:23;13.50;99.90
52044;DHT22;38053;53.100;6.078;2022-09-09T01:26:45;13.50;99.90
52044;DHT22;38053;53.100;6.078;2022-09-09T01:29:21;13.50;99.90
52044;DHT22;38053;53.100;6.078;2022-09-09T01:32:37;13.50;99.90
52044;DHT22;38053;53.100;6.078;2022-09-09T01:37:39;13.50;99.90
52044;DHT22;38053;53.100;6.078;2022-09-09T01:40:15;13.50;99.90
52044;DHT22;38053;53.100;6.078;2022-09-09T01:42:41;13.50;99.90
52044;DHT22;38053;53.100;6.078;2022-09-09T01:45:12;13.60;99.90
52044;DHT22;38053;53.100;6.078;2022-09-09T01:47:44;13.60;99.90
52044;DHT22;38053;53.100;6.078;2022-09-09T01:50:25;13.60;99.90
52044;DHT22;38053;53.100;6.078;2022-09-09T01:52:59;13.60;99.90
52044;DHT22;38053;53.100;6.078;2022-09-09T01:55:39;13.60;99.90
52044;DHT22;38053;53.100;6.078;2022-09-09T01:58:29;13.60;99.90
52044;DHT22;38053;53.100;6.078;2022-09-09T02:01:23;13.60;99.90
52044;DHT22;38053;53.100;6.078;2022-09-09T02:05:07;13.60;99.90
52044;DHT22;38053;53.100;6.078;2022-09-09T02:07:38;13.70;99.90
52044;DHT22;38053;53.100;6.078;2022-09-09T02:10:53;13.60;99.90
52044;DHT22;38053;53.100;6.078;2022-09-09T02:13:20;13.60;99.90
52044;DHT22;38053;53.100;6.078;2022-09-09T02:15:56;13.60;99.90
52044;DHT22;38053;53.100;6.078;2022-09-09T02:18:39;13.60;99.90
52044;DHT22;38053;53.100;6.078;2022-09-09T02:21:26;13.60;99.90
52044;DHT22;38053;53.100;6.078;2022-09-09T02:23:55;13.60;99.90
52044;DHT22;38053;53.100;6.078;2022-09-09T02:26:25;13.60;99.90
52044;DHT22;38053;53.100;6.078;2022-09-09T02:29:06;13.60;99.90
52044;DHT22;38053;53.100;6.078;2022-09-09T02:31:41;13.60;99.90
52044;DHT22;38053;53.100;6.078;2022-09-09T02:34:18;13.60;99.90
52044;DHT22;38053;53.100;6.078;2022-09-09T02:37:15;13.50;99.90
52044;DHT22;38053;53.100;6.078;2022-09-09T02:39:45;13.50;99.90
52044;DHT22;38053;53.100;6.078;2022-09-09T02:42:23;13.50;99.90
52044;DHT22;38053;53.100;6.078;2022-09-09T02:44:49;13.50;99.90
52044;DHT22;38053;53.100;6.078;2022-09-09T02:47:41;13.50;99.90
52044;DHT22;38053;53.100;6.078;2022-09-09T02:50:38;13.50;99.90
52044;DHT22;38053;53.100;6.078;2022-09-09T02:53:29;13.60;99.90
52044;DHT22;38053;53.100;6.078;2022-09-09T02:56:36;13.60;99.90
52044;DHT22;38053;53.100;6.078;2022-09-09T02:59:12;13.60;99.90
52044;DHT22;38053;53.100;6.078;2022-09-09T03:01:44;13.60;99.90
52044;DHT22;38053;53.100;6.078;2022-09-09T03:04:19;13.60;99.90
52044;DHT22;38053;53.100;6.078;2022-09-09T03:07:09;13.60;99.90
52044;DHT22;38053;53.100;6.078;2022-09-09T03:09:38;13.50;99.90
52044;DHT22;38053;53.100;6.078;2022-09-09T03:12:07;13.60;99.90
52044;DHT22;38053;53.100;6.078;2022-09-09T03:14:41;13.60;99.90
52044;DHT22;38053;53.100;6.078;2022-09-09T03:17:14;13.60;99.90
52044;DHT22;38053;53.100;6.078;2022-09-09T03:19:51;13.60;99.90
52044;DHT22;38053;53.100;6.078;2022-09-09T03:22:26;13.60;99.90
52044;DHT22;38053;53.100;6.078;2022-09-09T03:25:02;13.60;99.90
52044;DHT22;38053;53.100;6.078;2022-09-09T03:27:31;13.60;99.90
52044;DHT22;38053;53.100;6.078;2022-09-09T03:30:08;13.60;99.90
52044;DHT22;38053;53.100;6.078;2022-09-09T03:32:42;13.70;99.90
52044;DHT22;38053;53.100;6.078;2022-09-09T03:35:10;13.70;99.90
52044;DHT22;38053;53.100;6.078;2022-09-09T03:38:01;13.70;99.90
52044;DHT22;38053;53.100;6.078;2022-09-09T03:40:30;13.70;99.90
52044;DHT22;38053;53.100;6.078;2022-09-09T03:42:59;13.70;99.90
52044;DHT22;38053;53.100;6.078;2022-09-09T03:45:34;13.70;99.90
52044;DHT22;38053;53.100;6.078;2022-09-09T03:48:07;13.70;99.90
52044;DHT22;38053;53.100;6.078;2022-09-09T03:50:47;13.70;99.90
52044;DHT22;38053;53.100;6.078;2022-09-09T03:53:21;13.70;99.90
52044;DHT22;38053;53.100;6.078;2022-09-09T03:56:02;13.70;99.90
52044;DHT22;38053;53.100;6.078;2022-09-09T03:58:39;13.70;99.90
52044;DHT22;38053;53.100;6.078;2022-09-09T04:01:12;13.70;99.90
52044;DHT22;38053;53.100;6.078;2022-09-09T04:03:41;13.60;99.90
52044;DHT22;38053;53.100;6.078;2022-09-09T04:06:12;13.60;99.90
52044;DHT22;38053;53.100;6.078;2022-09-09T04:09:02;13.60;99.90
52044;DHT22;38053;53.100;6.078;2022-09-09T04:11:49;13.60;99.90
52044;DHT22;38053;53.100;6.078;2022-09-09T04:14:23;13.70;99.90
52044;DHT22;38053;53.100;6.078;2022-09-09T04:16:53;13.60;99.90
52044;DHT22;38053;53.100;6.078;2022-09-09T04:19:26;13.70;99.90
52044;DHT22;38053;53.100;6.078;2022-09-09T04:22:02;13.70;99.90
52044;DHT22;38053;53.100;6.078;2022-09-09T04:24:44;13.70;99.90
52044;DHT22;38053;53.100;6.078;2022-09-09T04:27:10;13.70;99.90
52044;DHT22;38053;53.100;6.078;2022-09-09T04:30:08;13.70;99.90
52044;DHT22;38053;53.100;6.078;2022-09-09T04:32:43;13.70;99.90
52044;DHT22;38053;53.100;6.078;2022-09-09T04:35:50;13.70;99.90
52044;DHT22;38053;53.100;6.078;2022-09-09T04:38:17;13.80;99.90
52044;DHT22;38053;53.100;6.078;2022-09-09T04:41:21;13.80;99.90
52044;DHT22;38053;53.100;6.078;2022-09-09T04:44:00;13.80;99.90
52044;DHT22;38053;53.100;6.078;2022-09-09T04:46:47;13.80;99.90
52044;DHT22;38053;53.100;6.078;2022-09-09T04:49:16;13.80;99.90
52044;DHT22;38053;53.100;6.078;2022-09-09T04:51:44;13.80;99.90
52044;DHT22;38053;53.100;6.078;2022-09-09T04:54:24;13.80;99.90
52044;DHT22;38053;53.100;6.078;2022-09-09T04:56:53;13.80;99.90
52044;DHT22;38053;53.100;6.078;2022-09-09T04:59:40;13.80;99.90
52044;DHT22;38053;53.100;6.078;2022-09-09T05:02:09;13.90;99.90
52044;DHT22;38053;53.100;6.078;2022-09-09T05:04:37;13.80;99.90
52044;DHT22;38053;53.100;6.078;2022-09-09T05:07:02;13.80;99.90
52044;DHT22;38053;53.100;6.078;2022-09-09T05:09:38;13.80;99.90
52044;DHT22;38053;53.100;6.078;2022-09-09T05:12:04;13.80;99.90
52044;DHT22;38053;53.100;6.078;2022-09-09T05:14:32;13.80;99.90
52044;DHT22;38053;53.100;6.078;2022-09-09T05:17:18;13.90;99.90
52044;DHT22;38053;53.100;6.078;2022-09-09T05:19:53;13.80;99.90
52044;DHT22;38053;53.100;6.078;2022-09-09T05:22:30;13.90;99.90
52044;DHT22;38053;53.100;6.078;2022-09-09T05:24:59;13.80;99.90
52044;DHT22;38053;53.100;6.078;2022-09-09T05:27:49;13.90;99.90
52044;DHT22;38053;53.100;6.078;2022-09-09T05:30:17;13.80;99.90
52044;DHT22;38053;53.100;6.078;2022-09-09T05:32:47;13.80;99.90
52044;DHT22;38053;53.100;6.078;2022-09-09T05:35:20;13.80;99.90
52044;DHT22;38053;53.100;6.078;2022-09-09T05:37:49;13.80;99.90
52044;DHT22;38053;53.100;6.078;2022-09-09T05:40:16;13.90;99.90
52044;DHT22;38053;53.100;6.078;2022-09-09T05:43:02;13.90;99.90
52044;DHT22;38053;53.100;6.078;2022-09-09T05:45:33;13.90;99.90
52044;DHT22;38053;53.100;6.078;2022-09-09T05:48:02;13.90;99.90
52044;DHT22;38053;53.100;6.078;2022-09-09T05:50:30;14.00;99.90
52044;DHT22;38053;53.100;6.078;2022-09-09T05:53:05;13.90;99.90
52044;DHT22;38053;53.100;6.078;2022-09-09T05:55:37;13.90;99.90
52044;DHT22;38053;53.100;6.078;2022-09-09T05:58:03;14.00;99.90
52044;DHT22;38053;53.100;6.078;2022-09-09T06:00:29;14.00;99.90
52044;DHT22;38053;53.100;6.078;2022-09-09T06:03:00;14.00;99.90
52044;DHT22;38053;53.100;6.078;2022-09-09T06:05:37;14.00;99.90
52044;DHT22;38053;53.100;6.078;2022-09-09T06:08:12;14.00;99.90
52044;DHT22;38053;53.100;6.078;2022-09-09T06:10:41;14.00;99.90
52044;DHT22;38053;53.100;6.078;2022-09-09T06:13:38;14.10;99.90
52044;DHT22;38053;53.100;6.078;2022-09-09T06:16:29;14.10;99.90
52044;DHT22;38053;53.100;6.078;2022-09-09T06:19:05;14.10;99.90
52044;DHT22;38053;53.100;6.078;2022-09-09T06:21:46;14.20;99.90
52044;DHT22;38053;53.100;6.078;2022-09-09T06:24:13;14.20;99.90
52044;DHT22;38053;53.100;6.078;2022-09-09T06:26:42;14.20;99.90
52044;DHT22;38053;53.100;6.078;2022-09-09T06:29:12;14.30;99.90
52044;DHT22;38053;53.100;6.078;2022-09-09T06:31:38;14.30;99.90
52044;DHT22;38053;53.100;6.078;2022-09-09T06:34:05;14.30;99.90
52044;DHT22;38053;53.100;6.078;2022-09-09T06:36:34;14.30;99.90
52044;DHT22;38053;53.100;6.078;2022-09-09T06:39:00;14.30;99.90
52044;DHT22;38053;53.100;6.078;2022-09-09T06:41:30;14.30;99.90
52044;DHT22;38053;53.100;6.078;2022-09-09T06:43:56;14.30;99.90
52044;DHT22;38053;53.100;6.078;2022-09-09T06:46:24;14.30;99.90
52044;DHT22;38053;53.100;6.078;2022-09-09T06:48:53;14.30;99.90
52044;DHT22;38053;53.100;6.078;2022-09-09T06:51:22;14.40;99.90
52044;DHT22;38053;53.100;6.078;2022-09-09T06:53:51;14.40;99.90
52044;DHT22;38053;53.100;6.078;2022-09-09T06:56:18;14.40;99.90
52044;DHT22;38053;53.100;6.078;2022-09-09T06:58:44;14.40;99.90
52044;DHT22;38053;53.100;6.078;2022-09-09T07:01:16;14.50;99.90
52044;DHT22;38053;53.100;6.078;2022-09-09T07:03:44;14.50;99.90
52044;DHT22;38053;53.100;6.078;2022-09-09T07:06:31;14.50;99.90
52044;DHT22;38053;53.100;6.078;2022-09-09T07:08:59;14.60;99.90
52044;DHT22;38053;53.100;6.078;2022-09-09T07:11:42;14.50;99.90
52044;DHT22;38053;53.100;6.078;2022-09-09T07:14:08;14.60;99.90
52044;DHT22;38053;53.100;6.078;2022-09-09T07:16:44;14.60;99.90
52044;DHT22;38053;53.100;6.078;2022-09-09T07:19:11;14.70;99.90
52044;DHT22;38053;53.100;6.078;2022-09-09T07:21:41;14.70;99.90
52044;DHT22;38053;53.100;6.078;2022-09-09T07:24:07;14.80;99.90
52044;DHT22;38053;53.100;6.078;2022-09-09T07:26:36;14.80;99.90
52044;DHT22;38053;53.100;6.078;2022-09-09T07:29:02;14.80;99.90
52044;DHT22;38053;53.100;6.078;2022-09-09T07:31:30;14.80;99.90
52044;DHT22;38053;53.100;6.078;2022-09-09T07:33:56;14.80;99.90
52044;DHT22;38053;53.100;6.078;2022-09-09T07:36:25;14.80;99.90
52044;DHT22;38053;53.100;6.078;2022-09-09T07:39:03;14.90;99.90
52044;DHT22;38053;53.100;6.078;2022-09-09T07:41:46;14.90;99.90
52044;DHT22;38053;53.100;6.078;2022-09-09T07:44:18;14.90;99.90
52044;DHT22;38053;53.100;6.078;2022-09-09T07:46:44;14.90;99.90
52044;DHT22;38053;53.100;6.078;2022-09-09T07:49:11;15.00;99.90
52044;DHT22;38053;53.100;6.078;2022-09-09T07:51:43;15.00;99.90
52044;DHT22;38053;53.100;6.078;2022-09-09T07:54:12;15.00;99.90
52044;DHT22;38053;53.100;6.078;2022-09-09T07:56:39;15.00;99.90
52044;DHT22;38053;53.100;6.078;2022-09-09T07:59:05;15.10;99.90
52044;DHT22;38053;53.100;6.078;2022-09-09T08:01:40;15.20;99.90
52044;DHT22;38053;53.100;6.078;2022-09-09T08:04:08;15.20;99.90
52044;DHT22;38053;53.100;6.078;2022-09-09T08:06:37;15.30;99.90
52044;DHT22;38053;53.100;6.078;2022-09-09T08:09:03;15.30;99.90
52044;DHT22;38053;53.100;6.078;2022-09-09T08:11:29;15.40;99.90
52044;DHT22;38053;53.100;6.078;2022-09-09T08:13:56;15.50;99.90
52044;DHT22;38053;53.100;6.078;2022-09-09T08:16:24;15.60;99.90
52044;DHT22;38053;53.100;6.078;2022-09-09T08:18:51;15.70;99.90
52044;DHT22;38053;53.100;6.078;2022-09-09T08:21:19;15.70;99.90
52044;DHT22;38053;53.100;6.078;2022-09-09T08:23:47;15.80;99.90
52044;DHT22;38053;53.100;6.078;2022-09-09T08:26:18;15.80;99.90
52044;DHT22;38053;53.100;6.078;2022-09-09T08:28:47;15.90;99.90
52044;DHT22;38053;53.100;6.078;2022-09-09T08:31:15;15.90;99.90
52044;DHT22;38053;53.100;6.078;2022-09-09T08:33:42;16.00;99.90
52044;DHT22;38053;53.100;6.078;2022-09-09T08:36:12;16.10;99.90
52044;DHT22;38053;53.100;6.078;2022-09-09T08:38:40;16.10;99.90
52044;DHT22;38053;53.100;6.078;2022-09-09T08:43:41;16.30;99.90
52044;DHT22;38053;53.100;6.078;2022-09-09T08:46:16;16.30;99.90
52044;DHT22;38053;53.100;6.078;2022-09-09T08:49:02;16.40;99.90
52044;DHT22;38053;53.100;6.078;2022-09-09T08:51:32;16.50;99.90
52044;DHT22;38053;53.100;6.078;2022-09-09T08:54:00;16.70;99.90
52044;DHT22;38053;53.100;6.078;2022-09-09T08:56:27;16.90;99.90
52044;DHT22;38053;53.100;6.078;2022-09-09T08:58:56;17.00;99.90
52044;DHT22;38053;53.100;6.078;2022-09-09T09:04:33;17.10;99.90
52044;DHT22;38053;53.100;6.078;2022-09-09T09:12:25;17.10;99.90
52044;DHT22;38053;53.100;6.078;2022-09-09T09:14:52;17.20;99.90
52044;DHT22;38053;53.100;6.078;2022-09-09T09:17:19;17.30;99.90
52044;DHT22;38053;53.100;6.078;2022-09-09T09:19:47;17.30;99.90
52044;DHT22;38053;53.100;6.078;2022-09-09T09:30:34;17.60;99.90
52044;DHT22;38053;53.100;6.078;2022-09-09T09:33:02;17.70;99.90
52044;DHT22;38053;53.100;6.078;2022-09-09T09:35:28;17.70;99.90
52044;DHT22;38053;53.100;6.078;2022-09-09T09:37:54;17.70;99.90
52044;DHT22;38053;53.100;6.078;2022-09-09T09:40:22;17.70;99.90
52044;DHT22;38053;53.100;6.078;2022-09-09T09:43:00;17.70;99.90
52044;DHT22;38053;53.100;6.078;2022-09-09T09:45:31;17.60;99.90
52044;DHT22;38053;53.100;6.078;2022-09-09T09:47:59;17.60;99.90
52044;DHT22;38053;53.100;6.078;2022-09-09T09:50:25;17.50;99.90
52044;DHT22;38053;53.100;6.078;2022-09-09T09:52:56;17.50;99.90
52044;DHT22;38053;53.100;6.078;2022-09-09T09:55:23;17.50;99.90
52044;DHT22;38053;53.100;6.078;2022-09-09T09:57:49;17.60;99.90
52044;DHT22;38053;53.100;6.078;2022-09-09T10:00:18;17.70;99.90
52044;DHT22;38053;53.100;6.078;2022-09-09T10:02:45;17.90;99.90
52044;DHT22;38053;53.100;6.078;2022-09-09T10:07:42;18.20;99.90
52044;DHT22;38053;53.100;6.078;2022-09-09T10:16:29;18.20;99.90
52044;DHT22;38053;53.100;6.078;2022-09-09T10:19:09;18.20;99.90
52044;DHT22;38053;53.100;6.078;2022-09-09T10:21:59;18.20;99.90
52044;DHT22;38053;53.100;6.078;2022-09-09T10:30:16;18.10;99.90
52044;DHT22;38053;53.100;6.078;2022-09-09T10:33:10;18.00;99.90
52044;DHT22;38053;53.100;6.078;2022-09-09T10:35:44;18.10;99.90
52044;DHT22;38053;53.100;6.078;2022-09-09T10:44:21;18.90;99.90
52044;DHT22;38053;53.100;6.078;2022-09-09T10:49:42;19.10;99.90
52044;DHT22;38053;53.100;6.078;2022-09-09T10:55:20;19.50;99.90
52044;DHT22;38053;53.100;6.078;2022-09-09T10:57:50;19.70;99.90
52044;DHT22;38053;53.100;6.078;2022-09-09T11:00:21;19.70;99.90
52044;DHT22;38053;53.100;6.078;2022-09-09T11:03:02;19.80;99.90
52044;DHT22;38053;53.100;6.078;2022-09-09T11:05:36;19.80;99.90
52044;DHT22;38053;53.100;6.078;2022-09-09T11:08:14;19.70;99.90
52044;DHT22;38053;53.100;6.078;2022-09-09T11:19:30;20.40;99.90
52044;DHT22;38053;53.100;6.078;2022-09-09T11:22:08;20.40;99.90
52044;DHT22;38053;53.100;6.078;2022-09-09T11:25:03;20.40;99.90
52044;DHT22;38053;53.100;6.078;2022-09-09T11:38:56;19.90;99.90
52044;DHT22;38053;53.100;6.078;2022-09-09T11:41:36;19.70;99.90
52044;DHT22;38053;53.100;6.078;2022-09-09T11:44:23;19.60;99.90
52044;DHT22;38053;53.100;6.078;2022-09-09T11:46:51;19.40;99.90
52044;DHT22;38053;53.100;6.078;2022-09-09T11:49:39;19.30;99.90
52044;DHT22;38053;53.100;6.078;2022-09-09T11:52:23;19.30;99.90
52044;DHT22;38053;53.100;6.078;2022-09-09T11:54:51;19.30;99.90
52044;DHT22;38053;53.100;6.078;2022-09-09T11:57:30;19.30;99.90
52044;DHT22;38053;53.100;6.078;2022-09-09T11:59:57;19.30;99.90
52044;DHT22;38053;53.100;6.078;2022-09-09T12:02:27;19.30;99.90
52044;DHT22;38053;53.100;6.078;2022-09-09T12:05:08;19.50;99.90
52044;DHT22;38053;53.100;6.078;2022-09-09T12:07:38;19.80;99.90
52044;DHT22;38053;53.100;6.078;2022-09-09T12:10:26;20.20;99.90
52044;DHT22;38053;53.100;6.078;2022-09-09T12:12:52;20.50;99.90
52044;DHT22;38053;53.100;6.078;2022-09-09T12:15:27;20.70;99.90
52044;DHT22;38053;53.100;6.078;2022-09-09T12:17:56;20.80;99.90
52044;DHT22;38053;53.100;6.078;2022-09-09T12:20:38;20.80;99.90
52044;DHT22;38053;53.100;6.078;2022-09-09T12:23:35;20.70;99.90
52044;DHT22;38053;53.100;6.078;2022-09-09T12:37:46;20.10;99.90
52044;DHT22;38053;53.100;6.078;2022-09-09T12:40:23;20.00;99.90
52044;DHT22;38053;53.100;6.078;2022-09-09T12:42:52;20.10;99.90
52044;DHT22;38053;53.100;6.078;2022-09-09T12:45:20;20.10;99.90
52044;DHT22;38053;53.100;6.078;2022-09-09T12:50:37;20.30;99.90
52044;DHT22;38053;53.100;6.078;2022-09-09T12:53:08;20.40;99.90
52044;DHT22;38053;53.100;6.078;2022-09-09T12:55:37;20.30;99.90
52044;DHT22;38053;53.100;6.078;2022-09-09T12:58:04;20.40;99.90
52044;DHT22;38053;53.100;6.078;2022-09-09T13:00:33;20.40;99.90
52044;DHT22;38053;53.100;6.078;2022-09-09T13:03:01;20.50;99.90
52044;DHT22;38053;53.100;6.078;2022-09-09T13:05:38;20.40;99.90
52044;DHT22;38053;53.100;6.078;2022-09-09T13:08:06;20.40;99.90
52044;DHT22;38053;53.100;6.078;2022-09-09T13:10:47;20.20;99.90
52044;DHT22;38053;53.100;6.078;2022-09-09T13:13:20;20.10;99.90
52044;DHT22;38053;53.100;6.078;2022-09-09T13:15:52;19.90;99.90
52044;DHT22;38053;53.100;6.078;2022-09-09T13:18:22;19.70;99.90
52044;DHT22;38053;53.100;6.078;2022-09-09T13:20:50;19.40;99.90
52044;DHT22;38053;53.100;6.078;2022-09-09T13:23:20;19.10;99.90
52044;DHT22;38053;53.100;6.078;2022-09-09T13:26:22;19.00;99.90
52044;DHT22;38053;53.100;6.078;2022-09-09T13:28:49;19.00;99.90
52044;DHT22;38053;53.100;6.078;2022-09-09T13:31:30;19.10;99.90
52044;DHT22;38053;53.100;6.078;2022-09-09T13:33:55;19.10;99.90
52044;DHT22;38053;53.100;6.078;2022-09-09T13:36:32;19.00;99.90
52044;DHT22;38053;53.100;6.078;2022-09-09T13:39:02;18.70;99.90
52044;DHT22;38053;53.100;6.078;2022-09-09T13:41:34;18.50;99.90
52044;DHT22;38053;53.100;6.078;2022-09-09T13:44:01;18.40;99.90
52044;DHT22;38053;53.100;6.078;2022-09-09T13:46:34;18.40;99.90
52044;DHT22;38053;53.100;6.078;2022-09-09T13:51:48;18.90;99.90
52044;DHT22;38053;53.100;6.078;2022-09-09T13:54:16;19.10;99.90
52044;DHT22;38053;53.100;6.078;2022-09-09T13:56:43;19.30;99.90
52044;DHT22;38053;53.100;6.078;2022-09-09T13:59:13;19.50;99.90
52044;DHT22;38053;53.100;6.078;2022-09-09T14:01:39;19.60;99.90
52044;DHT22;38053;53.100;6.078;2022-09-09T14:04:05;19.80;99.90
52044;DHT22;38053;53.100;6.078;2022-09-09T14:06:32;20.30;99.90
52044;DHT22;38053;53.100;6.078;2022-09-09T14:08:58;20.40;99.90
52044;DHT22;38053;53.100;6.078;2022-09-09T14:11:24;20.40;99.90
52044;DHT22;38053;53.100;6.078;2022-09-09T14:13:50;20.20;99.90
52044;DHT22;38053;53.100;6.078;2022-09-09T14:16:17;20.10;99.90
52044;DHT22;38053;53.100;6.078;2022-09-09T14:18:43;19.90;99.90
52044;DHT22;38053;53.100;6.078;2022-09-09T14:21:10;19.80;99.90
52044;DHT22;38053;53.100;6.078;2022-09-09T14:23:36;19.70;99.90
52044;DHT22;38053;53.100;6.078;2022-09-09T14:26:06;19.60;99.90
52044;DHT22;38053;53.100;6.078;2022-09-09T14:28:33;19.60;99.90
52044;DHT22;38053;53.100;6.078;2022-09-09T14:31:00;19.60;99.90
52044;DHT22;38053;53.100;6.078;2022-09-09T14:33:26;19.60;99.90
52044;DHT22;38053;53.100;6.078;2022-09-09T14:35:59;19.80;99.90
52044;DHT22;38053;53.100;6.078;2022-09-09T14:38:28;19.90;99.90
52044;DHT22;38053;53.100;6.078;2022-09-09T14:40:54;19.90;99.90
52044;DHT22;38053;53.100;6.078;2022-09-09T14:43:20;19.80;99.90
52044;DHT22;38053;53.100;6.078;2022-09-09T14:45:46;19.70;99.90
52044;DHT22;38053;53.100;6.078;2022-09-09T14:48:14;19.70;99.90
52044;DHT22;38053;53.100;6.078;2022-09-09T14:50:40;19.70;99.90
52044;DHT22;38053;53.100;6.078;2022-09-09T14:53:07;19.60;99.90
52044;DHT22;38053;53.100;6.078;2022-09-09T14:55:34;19.50;99.90
52044;DHT22;38053;53.100;6.078;2022-09-09T14:58:00;19.40;99.90
52044;DHT22;38053;53.100;6.078;2022-09-09T15:00:25;19.30;99.90
52044;DHT22;38053;53.100;6.078;2022-09-09T15:02:55;19.30;99.90
52044;DHT22;38053;53.100;6.078;2022-09-09T15:05:21;19.30;99.90
52044;DHT22;38053;53.100;6.078;2022-09-09T15:07:47;19.20;99.90
52044;DHT22;38053;53.100;6.078;2022-09-09T15:10:16;19.10;99.90
52044;DHT22;38053;53.100;6.078;2022-09-09T15:12:43;19.00;99.90
52044;DHT22;38053;53.100;6.078;2022-09-09T15:15:09;18.80;99.90
52044;DHT22;38053;53.100;6.078;2022-09-09T15:17:35;18.50;99.90
52044;DHT22;38053;53.100;6.078;2022-09-09T15:20:03;18.40;99.90
52044;DHT22;38053;53.100;6.078;2022-09-09T15:22:29;18.20;99.90
52044;DHT22;38053;53.100;6.078;2022-09-09T15:24:54;17.90;99.90
52044;DHT22;38053;53.100;6.078;2022-09-09T15:27:20;17.70;99.90
52044;DHT22;38053;53.100;6.078;2022-09-09T15:29:45;17.60;99.90
52044;DHT22;38053;53.100;6.078;2022-09-09T15:32:12;17.40;99.90
52044;DHT22;38053;53.100;6.078;2022-09-09T15:34:38;17.30;99.90
52044;DHT22;38053;53.100;6.078;2022-09-09T15:37:03;17.20;99.90
52044;DHT22;38053;53.100;6.078;2022-09-09T15:39:29;17.10;99.90
52044;DHT22;38053;53.100;6.078;2022-09-09T15:41:54;17.10;99.90
52044;DHT22;38053;53.100;6.078;2022-09-09T15:44:20;17.00;99.90
52044;DHT22;38053;53.100;6.078;2022-09-09T15:46:52;17.00;99.90
52044;DHT22;38053;53.100;6.078;2022-09-09T15:49:23;17.00;99.90
52044;DHT22;38053;53.100;6.078;2022-09-09T15:54:20;17.00;99.90
52044;DHT22;38053;53.100;6.078;2022-09-09T15:56:53;17.00;99.90
52044;DHT22;38053;53.100;6.078;2022-09-09T15:59:22;17.10;99.90
52044;DHT22;38053;53.100;6.078;2022-09-09T16:01:48;17.10;99.90
52044;DHT22;38053;53.100;6.078;2022-09-09T16:04:17;17.10;99.90
52044;DHT22;38053;53.100;6.078;2022-09-09T16:06:50;17.10;99.90
52044;DHT22;38053;53.100;6.078;2022-09-09T16:09:16;17.10;99.90
52044;DHT22;38053;53.100;6.078;2022-09-09T16:11:41;17.20;99.90
52044;DHT22;38053;53.100;6.078;2022-09-09T16:14:07;17.20;99.90
52044;DHT22;38053;53.100;6.078;2022-09-09T16:16:34;17.20;99.90
52044;DHT22;38053;53.100;6.078;2022-09-09T16:19:04;17.20;99.90
52044;DHT22;38053;53.100;6.078;2022-09-09T16:21:36;17.20;99.90
52044;DHT22;38053;53.100;6.078;2022-09-09T16:24:06;17.20;99.90
52044;DHT22;38053;53.100;6.078;2022-09-09T16:26:35;17.20;99.90
52044;DHT22;38053;53.100;6.078;2022-09-09T16:29:01;17.20;99.90
52044;DHT22;38053;53.100;6.078;2022-09-09T16:31:29;17.20;99.90
52044;DHT22;38053;53.100;6.078;2022-09-09T16:33:55;17.20;99.90
52044;DHT22;38053;53.100;6.078;2022-09-09T16:36:23;17.20;99.90
52044;DHT22;38053;53.100;6.078;2022-09-09T16:38:57;17.20;99.90
52044;DHT22;38053;53.100;6.078;2022-09-09T16:41:23;17.20;99.90
52044;DHT22;38053;53.100;6.078;2022-09-09T16:43:54;17.20;99.90
52044;DHT22;38053;53.100;6.078;2022-09-09T16:46:21;17.30;99.90
52044;DHT22;38053;53.100;6.078;2022-09-09T16:48:50;17.30;99.90
52044;DHT22;38053;53.100;6.078;2022-09-09T16:53:44;17.30;99.90
52044;DHT22;38053;53.100;6.078;2022-09-09T16:56:15;17.30;99.90
52044;DHT22;38053;53.100;6.078;2022-09-09T16:58:42;17.30;99.90
52044;DHT22;38053;53.100;6.078;2022-09-09T17:01:11;17.30;99.90
52044;DHT22;38053;53.100;6.078;2022-09-09T17:03:42;17.30;99.90
52044;DHT22;38053;53.100;6.078;2022-09-09T17:06:12;17.30;99.90
52044;DHT22;38053;53.100;6.078;2022-09-09T17:08:39;17.20;99.90
52044;DHT22;38053;53.100;6.078;2022-09-09T17:11:17;17.20;99.90
52044;DHT22;38053;53.100;6.078;2022-09-09T17:13:47;17.20;99.90
52044;DHT22;38053;53.100;6.078;2022-09-09T17:16:15;17.20;99.90
52044;DHT22;38053;53.100;6.078;2022-09-09T17:18:41;17.20;99.90
52044;DHT22;38053;53.100;6.078;2022-09-09T17:21:09;17.20;99.90
52044;DHT22;38053;53.100;6.078;2022-09-09T17:23:37;17.20;99.90
52044;DHT22;38053;53.100;6.078;2022-09-09T17:26:06;17.10;99.90
52044;DHT22;38053;53.100;6.078;2022-09-09T17:28:36;17.10;99.90
52044;DHT22;38053;53.100;6.078;2022-09-09T17:31:05;17.10;99.90
52044;DHT22;38053;53.100;6.078;2022-09-09T17:33:39;17.10;99.90
52044;DHT22;38053;53.100;6.078;2022-09-09T17:36:52;17.10;99.90
52044;DHT22;38053;53.100;6.078;2022-09-09T17:38:59;17.10;99.90
52044;DHT22;38053;53.100;6.078;2022-09-09T17:41:30;17.10;99.90
52044;DHT22;38053;53.100;6.078;2022-09-09T17:43:57;17.10;99.90
52044;DHT22;38053;53.100;6.078;2022-09-09T17:46:28;17.10;99.90
52044;DHT22;38053;53.100;6.078;2022-09-09T17:48:58;17.10;99.90
52044;DHT22;38053;53.100;6.078;2022-09-09T17:51:25;17.10;99.90
52044;DHT22;38053;53.100;6.078;2022-09-09T17:54:00;17.10;99.90
52044;DHT22;38053;53.100;6.078;2022-09-09T17:56:29;17.10;99.90
52044;DHT22;38053;53.100;6.078;2022-09-09T17:58:56;17.00;99.90
52044;DHT22;38053;53.100;6.078;2022-09-09T18:01:24;17.00;99.90
52044;DHT22;38053;53.100;6.078;2022-09-09T18:03:53;17.00;99.90
52044;DHT22;38053;53.100;6.078;2022-09-09T18:06:21;17.00;99.90